Time;durP1;ratioP1;P1;durP2;ratioP2;P2;SDS_P1;SDS_P2;PMS_P1;PMS_P2;Temp;Humidity;BMP_temperature;BMP_pressure;BME280_temperature;BME280_humidity;BME280_pressure;Samples;Min_cycle;Max_cycle;Signal;HPM_P1;HPM_P2
2023/04/16 00:00:25;;;;;;;80.97;39.23;;;;;;;-145.18;100.00;60484.78;5035271;28;20032;-69
2023/04/16 00:02:50;;;;;;;70.83;37.33;;;;;;;-145.18;100.00;60484.78;5033437;28;20029;-69
2023/04/16 00:05:16;;;;;;;73.30;37.37;;;;;;;-145.18;100.00;60484.78;5034458;28;20049;-69
2023/04/16 00:07:41;;;;;;;75.13;38.43;;;;;;;-145.18;100.00;60484.78;5035091;28;20389;-69
2023/04/16 00:10:07;;;;;;;74.60;38.70;;;;;;;-145.18;100.00;60484.78;5016854;28;20028;-69
2023/04/16 00:12:33;;;;;;;73.67;38.17;;;;;;;-145.18;100.00;60484.78;5032266;28;20503;-69
2023/04/16 00:14:58;;;;;;;71.80;37.20;;;;;;;-145.18;100.00;60484.78;5034713;28;20072;-69
2023/04/16 00:17:24;;;;;;;69.80;37.53;;;;;;;-145.18;100.00;60484.78;5034709;28;20064;-69
2023/04/16 00:19:49;;;;;;;65.93;36.67;;;;;;;-145.18;100.00;60484.78;5032435;28;20025;-69
2023/04/16 00:22:15;;;;;;;69.83;36.07;;;;;;;-145.18;100.00;60484.78;5034792;28;20029;-70
2023/04/16 00:24:41;;;;;;;62.73;35.00;;;;;;;-145.18;100.00;60484.78;5034775;28;20420;-69
2023/04/16 00:27:06;;;;;;;64.73;34.90;;;;;;;-145.18;100.00;60484.78;5038635;28;20098;-69
2023/04/16 00:29:33;;;;;;;59.37;34.47;;;;;;;-145.18;100.00;60484.78;5034176;28;20029;-69
2023/04/16 00:31:59;;;;;;;60.33;34.17;;;;;;;-145.18;100.00;60484.78;5034733;28;20029;-69
2023/04/16 00:34:24;;;;;;;58.33;32.67;;;;;;;-145.18;100.00;60484.78;5034571;28;20362;-70
2023/04/16 00:36:50;;;;;;;59.90;32.93;;;;;;;-145.18;100.00;60484.78;5018923;28;20401;-70
2023/04/16 00:39:15;;;;;;;54.33;32.93;;;;;;;-145.18;100.00;60484.78;5034537;28;20048;-69
2023/04/16 00:41:42;;;;;;;58.43;33.60;;;;;;;-145.18;100.00;60484.78;5034282;28;20424;-69
2023/04/16 00:44:08;;;;;;;56.07;33.47;;;;;;;-145.18;100.00;60484.78;5034031;28;20394;-69
2023/04/16 00:46:35;;;;;;;57.97;32.67;;;;;;;-145.18;100.00;60484.78;5034255;28;20027;-69
2023/04/16 00:49:01;;;;;;;57.23;32.97;;;;;;;-145.18;100.00;60484.78;5016194;28;20056;-69
2023/04/16 00:51:27;;;;;;;58.53;32.37;;;;;;;-145.18;100.00;60484.78;5035125;28;20095;-69
2023/04/16 00:53:53;;;;;;;55.30;31.30;;;;;;;-145.18;100.00;60484.78;5033746;28;20033;-69
2023/04/16 00:56:21;;;;;;;52.53;32.40;;;;;;;-145.18;100.00;60484.78;5016192;28;20104;-69
2023/04/16 00:58:46;;;;;;;53.13;30.43;;;;;;;-145.18;100.00;60484.78;5030285;28;20045;-69
2023/04/16 01:04:00;;;;;;;49.80;30.23;;;;;;;-145.18;100.00;60484.78;5054216;22;20053;-64
2023/04/16 01:06:26;;;;;;;55.23;31.80;;;;;;;-145.18;100.00;60484.78;5033938;28;20496;-64
2023/04/16 01:08:52;;;;;;;52.70;30.80;;;;;;;-145.18;100.00;60484.78;5032127;28;20021;-64
2023/04/16 01:11:17;;;;;;;54.93;31.67;;;;;;;-145.18;100.00;60484.78;5033601;28;20048;-64
2023/04/16 01:13:43;;;;;;;55.20;30.93;;;;;;;-145.18;100.00;60484.78;5033404;28;20045;-64
2023/04/16 01:16:10;;;;;;;53.67;30.30;;;;;;;-145.18;100.00;60484.78;5033817;28;20124;-64
2023/04/16 01:18:36;;;;;;;51.13;31.13;;;;;;;-145.18;100.00;60484.78;5033506;28;20038;-64
2023/04/16 01:21:03;;;;;;;52.47;30.93;;;;;;;-145.18;100.00;60484.78;5033679;28;20021;-64
2023/04/16 01:23:28;;;;;;;51.20;30.73;;;;;;;-145.18;100.00;60484.78;5033313;28;20116;-64
2023/04/16 01:25:54;;;;;;;54.20;30.20;;;;;;;-145.18;100.00;60484.78;5032857;28;20109;-64
2023/04/16 01:28:20;;;;;;;52.80;29.83;;;;;;;-145.18;100.00;60484.78;5033372;28;20047;-64
2023/04/16 01:30:46;;;;;;;54.07;32.10;;;;;;;-145.18;100.00;60484.78;5033255;28;20038;-64
2023/04/16 01:33:12;;;;;;;51.93;31.50;;;;;;;-145.18;100.00;60484.78;5032960;28;20513;-64
2023/04/16 01:35:39;;;;;;;52.03;31.83;;;;;;;-145.18;100.00;60484.78;5033105;28;20040;-64
2023/04/16 01:38:06;;;;;;;53.20;31.60;;;;;;;-145.18;100.00;60484.78;5033361;28;20090;-64
2023/04/16 01:40:34;;;;;;;54.37;32.37;;;;;;;-145.18;100.00;60484.78;5032887;28;20033;-64
2023/04/16 01:42:59;;;;;;;53.23;31.83;;;;;;;-145.18;100.00;60484.78;5032227;28;20033;-64
2023/04/16 01:45:25;;;;;;;55.43;31.63;;;;;;;-145.18;100.00;60484.78;5033125;28;20037;-64
2023/04/16 01:47:51;;;;;;;52.53;31.93;;;;;;;-145.18;100.00;60484.78;5032891;28;20025;-64
2023/04/16 01:50:18;;;;;;;56.80;32.73;;;;;;;-145.18;100.00;60484.78;5033006;28;20175;-64
2023/04/16 01:52:43;;;;;;;57.50;32.27;;;;;;;-145.18;100.00;60484.78;5032995;28;20037;-64
2023/04/16 01:55:09;;;;;;;55.97;32.97;;;;;;;-145.18;100.00;60484.78;5033164;28;20385;-64
2023/04/16 01:57:35;;;;;;;58.73;32.70;;;;;;;-145.18;100.00;60484.78;5032948;28;20453;-64
2023/04/16 02:00:01;;;;;;;59.53;32.93;;;;;;;-145.18;100.00;60484.78;5030658;28;20056;-64
2023/04/16 02:02:27;;;;;;;58.77;33.07;;;;;;;-145.18;100.00;60484.78;5032234;28;20041;-64
2023/04/16 02:04:54;;;;;;;62.63;34.40;;;;;;;-145.18;100.00;60484.78;5032145;28;20025;-64
2023/04/16 02:07:19;;;;;;;60.23;34.60;;;;;;;-145.18;100.00;60484.78;5017303;28;20085;-64
2023/04/16 02:09:45;;;;;;;61.30;34.63;;;;;;;-145.18;100.00;60484.78;5010755;28;20029;-64
2023/04/16 02:12:10;;;;;;;62.63;34.73;;;;;;;-145.18;100.00;60484.78;5012626;28;20030;-64
2023/04/16 02:14:36;;;;;;;63.60;36.07;;;;;;;-145.18;100.00;60484.78;5013457;28;20034;-63
2023/04/16 02:17:02;;;;;;;65.53;36.47;;;;;;;-145.18;100.00;60484.78;5013114;28;20095;-64
2023/04/16 02:19:28;;;;;;;64.50;35.70;;;;;;;-145.18;100.00;60484.78;5011929;28;20021;-64
2023/04/16 02:21:54;;;;;;;68.33;36.47;;;;;;;-145.18;100.00;60484.78;5013228;28;20026;-64
2023/04/16 02:24:20;;;;;;;65.17;35.30;;;;;;;-145.18;100.00;60484.78;5013412;28;20366;-63
2023/04/16 02:26:46;;;;;;;64.83;35.43;;;;;;;-145.18;100.00;60484.78;5013797;28;20030;-64
2023/04/16 02:29:12;;;;;;;63.07;35.50;;;;;;;-145.18;100.00;60484.78;5013280;28;20478;-64
2023/04/16 02:31:38;;;;;;;66.00;35.73;;;;;;;-145.18;100.00;60484.78;5013354;28;20033;-64
2023/04/16 02:34:04;;;;;;;66.63;35.67;;;;;;;-145.18;100.00;60484.78;5012591;28;20034;-63
2023/04/16 02:36:30;;;;;;;62.37;35.93;;;;;;;-145.18;100.00;60484.78;5022297;28;20034;-64
2023/04/16 02:38:56;;;;;;;67.60;35.83;;;;;;;-145.18;100.00;60484.78;5013296;28;20040;-64
2023/04/16 02:41:22;;;;;;;63.10;34.10;;;;;;;-145.18;100.00;60484.78;5012985;28;20018;-64
2023/04/16 02:43:47;;;;;;;62.57;35.27;;;;;;;-145.18;100.00;60484.78;5012099;28;20937;-63
2023/04/16 02:46:13;;;;;;;59.27;34.53;;;;;;;-145.18;100.00;60484.78;5014509;28;20029;-64
2023/04/16 02:48:38;;;;;;;65.90;35.50;;;;;;;-145.18;100.00;60484.78;5013106;28;20429;-64
2023/04/16 02:51:04;;;;;;;65.03;35.77;;;;;;;-145.18;100.00;60484.78;5010825;28;20425;-64
2023/04/16 02:53:29;;;;;;;64.07;35.77;;;;;;;-145.18;100.00;60484.78;5013024;28;20058;-64
2023/04/16 02:55:55;;;;;;;67.13;35.63;;;;;;;-145.18;100.00;60484.78;5022337;28;20026;-65
2023/04/16 02:58:25;;;;;;;72.67;36.87;;;;;;;-145.18;100.00;60484.78;5031464;28;20473;-64
2023/04/16 03:00:53;;;;;;;67.93;35.80;;;;;;;-145.18;100.00;60484.78;5031525;28;20088;-64
2023/04/16 03:03:18;;;;;;;65.83;36.93;;;;;;;-145.18;100.00;60484.78;5008239;28;20103;-64
2023/04/16 03:05:44;;;;;;;65.97;36.60;;;;;;;-145.18;100.00;60484.78;5012495;28;20440;-64
2023/04/16 03:08:10;;;;;;;73.27;37.00;;;;;;;-145.18;100.00;60484.78;5011765;28;20029;-64
2023/04/16 03:10:36;;;;;;;70.70;38.30;;;;;;;-145.18;100.00;60484.78;5010260;28;20027;-64
2023/04/16 03:13:02;;;;;;;68.67;37.60;;;;;;;-145.18;100.00;60484.78;5012425;28;20444;-64
2023/04/16 03:15:28;;;;;;;68.67;37.57;;;;;;;-145.18;100.00;60484.78;5029597;28;20071;-64
2023/04/16 03:17:54;;;;;;;73.40;37.57;;;;;;;-145.18;100.00;60484.78;5027987;28;20022;-64
2023/04/16 03:20:19;;;;;;;69.83;37.00;;;;;;;-145.18;100.00;60484.78;5012708;28;20104;-64
2023/04/16 03:22:48;;;;;;;74.80;38.37;;;;;;;-145.18;100.00;60484.78;5012568;28;20065;-64
2023/04/16 03:25:14;;;;;;;72.30;38.10;;;;;;;-145.18;100.00;60484.78;5009337;28;20054;-63
2023/04/16 03:27:40;;;;;;;71.13;37.90;;;;;;;-145.18;100.00;60484.78;5011921;28;20486;-64
2023/04/16 03:30:07;;;;;;;68.53;37.43;;;;;;;-145.18;100.00;60484.78;5012374;28;20101;-64
2023/04/16 03:32:32;;;;;;;73.87;37.97;;;;;;;-145.18;100.00;60484.78;5012654;28;20168;-64
2023/04/16 03:34:58;;;;;;;69.83;37.30;;;;;;;-145.18;100.00;60484.78;5012434;28;20153;-64
2023/04/16 03:37:23;;;;;;;67.37;36.90;;;;;;;-145.18;100.00;60484.78;5012383;28;20100;-64
2023/04/16 03:39:49;;;;;;;71.53;38.07;;;;;;;-145.18;100.00;60484.78;5012579;28;20122;-64
2023/04/16 03:42:14;;;;;;;69.53;36.97;;;;;;;-145.18;100.00;60484.78;5012235;28;20631;-64
2023/04/16 03:44:40;;;;;;;72.77;39.13;;;;;;;-145.18;100.00;60484.78;5012303;28;20468;-64
2023/04/16 03:47:05;;;;;;;71.60;38.97;;;;;;;-145.18;100.00;60484.78;5012567;28;20083;-64
2023/04/16 03:49:31;;;;;;;70.93;37.67;;;;;;;-145.18;100.00;60484.78;5012009;28;20030;-64
2023/04/16 03:51:56;;;;;;;70.33;37.67;;;;;;;-145.18;100.00;60484.78;5012202;28;20037;-64
2023/04/16 03:54:22;;;;;;;76.23;38.60;;;;;;;-145.18;100.00;60484.78;5012562;28;20030;-64
2023/04/16 03:56:47;;;;;;;67.73;36.73;;;;;;;-145.18;100.00;60484.78;5016179;28;20037;-64
2023/04/16 03:59:13;;;;;;;64.70;37.17;;;;;;;-145.18;100.00;60484.78;5019547;28;20040;-64
2023/04/16 04:01:38;;;;;;;75.07;38.30;;;;;;;-145.18;100.00;60484.78;5029153;28;20030;-63
2023/04/16 04:04:04;;;;;;;66.00;37.20;;;;;;;-145.18;100.00;60484.78;5015679;28;20037;-64
2023/04/16 04:06:29;;;;;;;67.57;36.57;;;;;;;-145.18;100.00;60484.78;5015954;28;20058;-64
2023/04/16 04:08:55;;;;;;;69.37;37.60;;;;;;;-145.18;100.00;60484.78;5015364;28;20083;-64
2023/04/16 04:11:21;;;;;;;68.00;36.93;;;;;;;-145.18;100.00;60484.78;5015099;28;20101;-64
2023/04/16 04:13:46;;;;;;;69.93;37.20;;;;;;;-145.18;100.00;60484.78;5015508;28;20482;-64
2023/04/16 04:16:12;;;;;;;69.00;37.50;;;;;;;-145.18;100.00;60484.78;5029542;28;20025;-64
2023/04/16 04:18:37;;;;;;;65.73;36.47;;;;;;;-145.18;100.00;60484.78;5015735;28;20100;-64
2023/04/16 04:21:06;;;;;;;69.10;37.57;;;;;;;-145.18;100.00;60484.78;5015238;28;20072;-64
2023/04/16 04:23:32;;;;;;;68.03;36.43;;;;;;;-145.18;100.00;60484.78;5012609;28;20053;-64
2023/04/16 04:25:58;;;;;;;68.37;36.03;;;;;;;-145.18;100.00;60484.78;5015545;28;20429;-64
2023/04/16 04:28:23;;;;;;;66.97;37.00;;;;;;;-145.18;100.00;60484.78;5015397;28;20489;-64
2023/04/16 04:30:49;;;;;;;68.97;37.13;;;;;;;-145.18;100.00;60484.78;5016774;28;20470;-64
2023/04/16 04:33:14;;;;;;;72.63;37.63;;;;;;;-145.18;100.00;60484.78;5015076;28;20022;-64
2023/04/16 04:35:40;;;;;;;72.97;37.93;;;;;;;-145.18;100.00;60484.78;5015372;28;20041;-64
2023/04/16 04:38:05;;;;;;;68.33;37.83;;;;;;;-145.18;100.00;60484.78;5015436;28;20101;-64
2023/04/16 04:40:31;;;;;;;66.93;37.00;;;;;;;-145.18;100.00;60484.78;5014923;28;20026;-64
2023/04/16 04:42:56;;;;;;;66.27;36.23;;;;;;;-145.18;100.00;60484.78;5016938;28;20088;-64
2023/04/16 04:45:24;;;;;;;68.20;36.97;;;;;;;-145.18;100.00;60484.78;5033631;28;20029;-64
2023/04/16 04:47:51;;;;;;;69.73;36.70;;;;;;;-145.18;100.00;60484.78;5023083;28;20030;-65
2023/04/16 04:50:16;;;;;;;64.77;36.17;;;;;;;-145.18;100.00;60484.78;5014823;28;20382;-64
2023/04/16 04:52:42;;;;;;;70.67;37.43;;;;;;;-145.18;100.00;60484.78;5016404;28;20034;-63
2023/04/16 04:55:08;;;;;;;72.00;37.50;;;;;;;-145.18;100.00;60484.78;5015177;28;20029;-64
2023/04/16 04:57:33;;;;;;;74.07;36.83;;;;;;;-145.18;100.00;60484.78;5015062;28;20155;-63
2023/04/16 04:59:59;;;;;;;67.63;36.57;;;;;;;-145.18;100.00;60484.78;5014738;28;20469;-64
2023/04/16 05:02:24;;;;;;;65.07;36.53;;;;;;;-145.18;100.00;60484.78;5014723;28;20045;-64
2023/04/16 05:04:50;;;;;;;71.07;37.10;;;;;;;-145.18;100.00;60484.78;5015119;28;20026;-64
2023/04/16 05:07:15;;;;;;;65.37;35.40;;;;;;;-145.18;100.00;60484.78;5013737;28;20460;-63
2023/04/16 05:09:41;;;;;;;63.10;35.13;;;;;;;-145.18;100.00;60484.78;5019404;28;20112;-64
2023/04/16 05:12:06;;;;;;;60.47;33.70;;;;;;;-145.18;100.00;60484.78;5013687;28;20029;-63
2023/04/16 05:14:32;;;;;;;64.43;35.23;;;;;;;-145.18;100.00;60484.78;5014696;28;20504;-64
2023/04/16 05:16:57;;;;;;;62.73;35.00;;;;;;;-145.18;100.00;60484.78;5014799;28;20531;-64
2023/04/16 05:19:23;;;;;;;65.60;35.20;;;;;;;-145.18;100.00;60484.78;5014657;28;20068;-63
2023/04/16 05:21:48;;;;;;;60.33;34.13;;;;;;;-145.18;100.00;60484.78;5017420;28;20032;-64
2023/04/16 05:24:14;;;;;;;61.87;33.03;;;;;;;-145.18;100.00;60484.78;5027607;28;20144;-64
2023/04/16 05:26:39;;;;;;;64.40;35.13;;;;;;;-145.18;100.00;60484.78;5014183;28;20500;-64
2023/04/16 05:29:05;;;;;;;54.30;32.93;;;;;;;-145.18;100.00;60484.78;5014457;28;20026;-64
2023/04/16 05:31:30;;;;;;;56.60;31.60;;;;;;;-145.18;100.00;60484.78;5014068;28;20053;-64
2023/04/16 05:33:56;;;;;;;54.00;32.73;;;;;;;-145.18;100.00;60484.78;5014327;28;20053;-64
2023/04/16 05:36:21;;;;;;;58.13;33.47;;;;;;;-145.18;100.00;60484.78;5015666;28;20054;-63
2023/04/16 05:38:47;;;;;;;52.17;31.43;;;;;;;-145.18;100.00;60484.78;5032517;28;20400;-64
2023/04/16 05:41:12;;;;;;;49.43;30.17;;;;;;;-145.18;100.00;60484.78;5027077;28;20018;-63
2023/04/16 05:43:38;;;;;;;50.30;31.83;;;;;;;-145.18;100.00;60484.78;5014215;28;20029;-63
2023/04/16 05:46:03;;;;;;;50.40;30.87;;;;;;;-145.18;100.00;60484.78;5014082;28;20101;-64
2023/04/16 05:48:29;;;;;;;49.53;29.83;;;;;;;-145.18;100.00;60484.78;5013671;28;20060;-64
2023/04/16 05:50:55;;;;;;;46.90;29.33;;;;;;;-145.18;100.00;60484.78;5014071;28;20106;-64
2023/04/16 05:53:20;;;;;;;53.93;30.63;;;;;;;-145.18;100.00;60484.78;5013642;28;20569;-64
2023/04/16 05:55:46;;;;;;;44.50;27.63;;;;;;;-145.18;100.00;60484.78;5013987;28;20048;-64
2023/04/16 05:58:11;;;;;;;43.97;28.13;;;;;;;-145.18;100.00;60484.78;5013119;28;20107;-63
2023/04/16 06:00:37;;;;;;;45.03;27.73;;;;;;;-145.18;100.00;60484.78;5013878;28;20026;-63
2023/04/16 06:03:03;;;;;;;43.90;27.57;;;;;;;-145.18;100.00;60484.78;5013264;28;20053;-63
2023/04/16 06:05:28;;;;;;;43.77;26.77;;;;;;;-145.18;100.00;60484.78;5012070;28;20036;-63
2023/04/16 06:07:54;;;;;;;43.67;27.40;;;;;;;-145.18;100.00;60484.78;5013496;28;20512;-64
2023/04/16 06:10:20;;;;;;;45.83;26.47;;;;;;;-145.18;100.00;60484.78;5008647;28;20033;-63
2023/04/16 06:12:45;;;;;;;43.47;26.87;;;;;;;-145.18;100.00;60484.78;5013312;28;20030;-63
2023/04/16 06:15:11;;;;;;;39.90;25.20;;;;;;;-145.18;100.00;60484.78;5013525;28;20621;-64
2023/04/16 06:17:36;;;;;;;42.27;24.77;;;;;;;-145.18;100.00;60484.78;5013479;28;20084;-64
2023/04/16 06:20:05;;;;;;;38.27;24.40;;;;;;;-145.18;100.00;60484.78;5013465;28;20367;-63
2023/04/16 06:22:31;;;;;;;36.67;24.17;;;;;;;-145.18;100.00;60484.78;5012052;28;20040;-63
2023/04/16 06:24:56;;;;;;;37.03;23.07;;;;;;;-145.18;100.00;60484.78;5013743;28;20466;-63
2023/04/16 06:27:22;;;;;;;38.40;23.30;;;;;;;-145.18;100.00;60484.78;5013893;28;20025;-63
2023/04/16 06:29:48;;;;;;;37.47;22.17;;;;;;;-145.18;100.00;60484.78;5014006;28;20025;-63
2023/04/16 06:32:13;;;;;;;34.77;21.27;;;;;;;-145.18;100.00;60484.78;5012991;28;20026;-63
2023/04/16 06:34:39;;;;;;;32.43;20.13;;;;;;;-145.18;100.00;60484.78;5013949;28;20034;-63
2023/04/16 06:37:05;;;;;;;33.90;21.03;;;;;;;-145.18;100.00;60484.78;5013903;28;20037;-63
2023/04/16 06:39:30;;;;;;;31.70;20.50;;;;;;;-145.18;100.00;60484.78;5013501;28;20049;-63
2023/04/16 06:41:56;;;;;;;30.17;19.40;;;;;;;-145.18;100.00;60484.78;5013396;28;20545;-63
2023/04/16 06:44:21;;;;;;;32.70;20.23;;;;;;;-145.18;100.00;60484.78;5013857;28;20389;-64
2023/04/16 06:46:47;;;;;;;32.73;20.27;;;;;;;-145.18;100.00;60484.78;5013533;28;20041;-64
2023/04/16 06:49:12;;;;;;;31.90;18.97;;;;;;;-145.18;100.00;60484.78;5013218;28;20458;-63
2023/04/16 06:51:38;;;;;;;33.03;20.70;;;;;;;-145.18;100.00;60484.78;5013354;28;20251;-63
2023/04/16 06:54:03;;;;;;;33.17;21.37;;;;;;;-145.18;100.00;60484.78;5013378;28;20037;-63
2023/04/16 06:56:29;;;;;;;34.37;20.83;;;;;;;-145.18;100.00;60484.78;5013250;28;20079;-63
2023/04/16 06:58:56;;;;;;;34.30;20.33;;;;;;;-145.18;100.00;60484.78;5013646;28;20026;-63
2023/04/16 07:01:22;;;;;;;28.77;18.50;;;;;;;-145.18;100.00;60484.78;5013346;28;20097;-63
2023/04/16 07:03:47;;;;;;;31.60;18.97;;;;;;;-145.18;100.00;60484.78;5012745;28;20141;-63
2023/04/16 07:06:13;;;;;;;33.47;20.13;;;;;;;-145.18;100.00;60484.78;5013094;28;20042;-63
2023/04/16 07:08:38;;;;;;;31.27;20.20;;;;;;;-145.18;100.00;60484.78;5013265;28;20425;-63
2023/04/16 07:11:04;;;;;;;30.63;19.03;;;;;;;-145.18;100.00;60484.78;5012864;28;20022;-63
2023/04/16 07:13:29;;;;;;;28.23;18.83;;;;;;;-145.18;100.00;60484.78;5013369;28;20034;-63
2023/04/16 07:15:55;;;;;;;30.03;19.03;;;;;;;-145.18;100.00;60484.78;5013228;28;20092;-64
2023/04/16 07:18:20;;;;;;;28.20;18.40;;;;;;;-145.18;100.00;60484.78;5013280;28;20026;-64
2023/04/16 07:20:47;;;;;;;30.53;18.47;;;;;;;-145.18;100.00;60484.78;5013429;28;20046;-64
2023/04/16 07:23:12;;;;;;;24.97;17.27;;;;;;;-145.18;100.00;60484.78;5012472;28;20034;-64
2023/04/16 07:25:37;;;;;;;28.87;17.97;;;;;;;-145.18;100.00;60484.78;5013079;28;20088;-64
2023/04/16 07:28:03;;;;;;;30.37;17.37;;;;;;;-145.18;100.00;60484.78;5013006;28;20068;-64
2023/04/16 07:30:33;;;;;;;27.93;17.27;;;;;;;-145.18;100.00;60484.78;5015406;28;20544;-64
2023/04/16 07:33:00;;;;;;;26.60;17.53;;;;;;;-145.18;100.00;60484.78;5017042;28;20034;-63
2023/04/16 07:35:26;;;;;;;31.23;16.83;;;;;;;-145.18;100.00;60484.78;5016920;28;20037;-64
2023/04/16 07:37:51;;;;;;;30.43;17.80;;;;;;;-145.18;100.00;60484.78;5017204;28;20034;-64
2023/04/16 07:40:17;;;;;;;29.20;17.43;;;;;;;-145.18;100.00;60484.78;5016322;28;20401;-64
2023/04/16 07:42:42;;;;;;;26.37;16.30;;;;;;;-145.18;100.00;60484.78;5017038;28;20105;-63
2023/04/16 07:45:08;;;;;;;28.13;16.90;;;;;;;-145.18;100.00;60484.78;5016687;28;20032;-64
2023/04/16 07:47:34;;;;;;;25.83;16.83;;;;;;;-145.18;100.00;60484.78;5016754;28;20022;-64
2023/04/16 07:49:59;;;;;;;27.30;16.80;;;;;;;-145.18;100.00;60484.78;5016036;28;20378;-64
2023/04/16 07:52:25;;;;;;;23.87;15.53;;;;;;;-145.18;100.00;60484.78;5015616;28;20037;-64
2023/04/16 07:54:51;;;;;;;30.50;15.60;;;;;;;-145.18;100.00;60484.78;5015154;28;20030;-64
2023/04/16 07:57:16;;;;;;;24.43;16.47;;;;;;;-145.18;100.00;60484.78;5015717;28;20030;-64
2023/04/16 07:59:42;;;;;;;25.20;16.03;;;;;;;-145.18;100.00;60484.78;5016099;28;20402;-64
2023/04/16 08:02:12;;;;;;;26.67;15.27;;;;;;;-145.18;100.00;60484.78;5015445;28;20033;-64
2023/04/16 08:04:37;;;;;;;24.10;15.27;;;;;;;-145.18;100.00;60484.78;5015457;28;20037;-64
2023/04/16 08:07:03;;;;;;;23.73;14.60;;;;;;;-145.18;100.00;60484.78;5015843;28;20025;-64
2023/04/16 08:09:28;;;;;;;24.37;14.97;;;;;;;-145.18;100.00;60484.78;5016462;28;20041;-64
2023/04/16 08:11:54;;;;;;;24.80;15.35;;;;;;;-145.18;100.00;60484.78;5016471;28;20076;-64
2023/04/16 08:14:19;;;;;;;22.15;14.73;;;;;;;-145.18;100.00;60484.78;5016001;28;20025;-64
2023/04/16 08:16:45;;;;;;;27.67;15.23;;;;;;;-145.18;100.00;60484.78;5016110;28;20493;-64
2023/04/16 08:19:10;;;;;;;26.50;16.27;;;;;;;-145.18;100.00;60484.78;5016389;28;20065;-64
2023/04/16 08:21:36;;;;;;;24.65;15.35;;;;;;;-145.18;100.00;60484.78;5015630;28;20029;-64
2023/04/16 08:24:01;;;;;;;22.40;14.57;;;;;;;-145.18;100.00;60484.78;5016226;28;20033;-64
2023/04/16 08:26:27;;;;;;;24.00;14.82;;;;;;;-145.18;100.00;60484.78;5015819;28;20458;-64
2023/04/16 08:28:52;;;;;;;23.02;15.52;;;;;;;-145.18;100.00;60484.78;5016166;28;20028;-64
2023/04/16 08:31:17;;;;;;;25.73;15.00;;;;;;;-145.18;100.00;60484.78;5025553;28;20129;-64
2023/04/16 08:33:43;;;;;;;21.67;14.57;;;;;;;-145.18;100.00;60484.78;4996547;28;20031;-64
2023/04/16 08:36:08;;;;;;;23.27;14.38;;;;;;;-145.18;100.00;60484.78;4996781;28;20034;-64
2023/04/16 08:38:34;;;;;;;23.48;15.35;;;;;;;-145.18;100.00;60484.78;5013557;28;20103;-65
2023/04/16 08:41:04;;;;;;;24.38;15.27;;;;;;;-145.18;100.00;60484.78;5014307;28;20068;-65
2023/04/16 08:43:32;;;;;;;24.77;14.63;;;;;;;-145.18;100.00;60484.78;5015557;28;20512;-64
2023/04/16 08:46:00;;;;;;;22.27;14.82;;;;;;;-145.18;100.00;60484.78;5014809;28;20030;-64
2023/04/16 08:48:31;;;;;;;22.02;14.68;;;;;;;-145.18;100.00;60484.78;5015801;28;20025;-64
2023/04/16 08:50:59;;;;;;;22.08;14.32;;;;;;;-145.18;100.00;60484.78;5013588;28;20064;-63
2023/04/16 08:53:32;;;;;;;27.80;14.73;;;;;;;-145.18;100.00;60484.78;5014823;28;20056;-63
2023/04/16 08:56:02;;;;;;;22.98;14.63;;;;;;;-145.18;100.00;60484.78;5000957;28;20046;-63
2023/04/16 08:58:32;;;;;;;22.13;14.65;;;;;;;-145.18;100.00;60484.78;5009731;28;20486;-63
2023/04/16 09:00:58;;;;;;;22.70;14.43;;;;;;;-145.18;100.00;60484.78;5014160;28;20022;-63
2023/04/16 09:03:24;;;;;;;23.52;15.13;;;;;;;-145.18;100.00;60484.78;5014196;28;20112;-63
2023/04/16 09:05:50;;;;;;;22.48;13.88;;;;;;;-145.18;100.00;60484.78;5014906;28;20038;-64
2023/04/16 09:08:16;;;;;;;26.77;14.73;;;;;;;-145.18;100.00;60484.78;5014602;28;20091;-64
2023/04/16 09:10:42;;;;;;;22.55;13.52;;;;;;;-145.18;100.00;60484.78;5012716;28;20022;-63
2023/04/16 09:13:10;;;;;;;22.08;14.10;;;;;;;-145.18;100.00;60484.78;5014246;28;20026;-63
2023/04/16 09:15:36;;;;;;;22.20;13.77;;;;;;;-145.18;100.00;60484.78;5014923;28;20030;-62
2023/04/16 09:18:02;;;;;;;23.98;14.57;;;;;;;-145.18;100.00;60484.78;5014358;28;20105;-63
2023/04/16 09:20:27;;;;;;;23.63;15.15;;;;;;;-145.18;100.00;60484.78;5013942;28;20105;-66
2023/04/16 09:22:53;;;;;;;22.25;14.02;;;;;;;-145.18;100.00;60484.78;5013315;28;20033;-62
2023/04/16 09:25:21;;;;;;;24.92;14.75;;;;;;;-145.18;100.00;60484.78;5014050;28;20033;-63
2023/04/16 09:27:49;;;;;;;23.40;15.35;;;;;;;-145.18;100.00;60484.78;5012650;28;20041;-63
2023/04/16 09:30:23;;;;;;;27.55;15.55;;;;;;;-145.18;100.00;60484.78;5014712;28;20046;-63
2023/04/16 09:32:49;;;;;;;28.17;14.82;;;;;;;-145.18;100.00;60484.78;5013881;28;20034;-63
2023/04/16 09:35:17;;;;;;;24.33;14.18;;;;;;;-145.18;100.00;60484.78;5014156;28;20470;-63
2023/04/16 09:37:43;;;;;;;25.95;14.90;;;;;;;-145.18;100.00;60484.78;5013782;28;20037;-63
2023/04/16 09:40:08;;;;;;;21.67;14.38;;;;;;;-145.18;100.00;60484.78;5013005;28;20041;-63
2023/04/16 09:42:38;;;;;;;28.83;14.60;;;;;;;-145.18;100.00;60484.78;5012436;28;20402;-63
2023/04/16 09:45:04;;;;;;;24.08;13.40;;;;;;;-145.18;100.00;60484.78;5013627;28;20038;-63
2023/04/16 09:47:42;;;;;;;22.50;14.98;;;;;;;-145.18;100.00;60484.78;5014089;28;20088;-63
2023/04/16 09:50:09;;;;;;;19.92;12.75;;;;;;;-145.18;100.00;60484.78;5013796;28;20486;-63
2023/04/16 09:52:37;;;;;;;21.45;13.82;;;;;;;-145.18;100.00;60484.78;5012516;28;20065;-64
2023/04/16 09:55:03;;;;;;;20.08;12.93;;;;;;;-145.18;100.00;60484.78;5013041;28;20036;-63
2023/04/16 09:57:29;;;;;;;21.10;13.55;;;;;;;-145.18;100.00;60484.78;5014391;28;20477;-63
2023/04/16 10:00:01;;;;;;;21.67;13.38;;;;;;;-145.18;100.00;60484.78;5013198;28;20029;-64
2023/04/16 10:02:27;;;;;;;21.13;13.48;;;;;;;-145.18;100.00;60484.78;5012646;28;20490;-63
2023/04/16 10:04:53;;;;;;;18.92;13.02;;;;;;;-145.18;100.00;60484.78;5013545;28;20072;-63
2023/04/16 10:07:19;;;;;;;21.70;13.45;;;;;;;-145.18;100.00;60484.78;5014020;28;20025;-63
2023/04/16 10:09:51;;;;;;;20.50;12.88;;;;;;;-145.18;100.00;60484.78;5013839;28;20097;-64
2023/04/16 10:12:16;;;;;;;;;;;;;;;-145.18;100.00;60484.78;5014424;28;20036;-63
2023/04/16 10:14:42;;;;;;;17.50;12.15;;;;;;;-145.18;100.00;60484.78;5013850;28;19910;-63
2023/04/16 10:17:08;;;;;;;21.63;11.85;;;;;;;-145.18;100.00;60484.78;5014219;28;20065;-64
2023/04/16 10:19:34;;;;;;;22.85;12.50;;;;;;;-145.18;100.00;60484.78;5013839;28;20029;-63
2023/04/16 10:22:01;;;;;;;18.70;12.82;;;;;;;-145.18;100.00;60484.78;5012550;28;20072;-64
2023/04/16 10:24:31;;;;;;;18.98;12.48;;;;;;;-145.18;100.00;60484.78;5014156;28;20117;-64
2023/04/16 10:26:57;;;;;;;21.13;12.90;;;;;;;-145.18;100.00;60484.78;5013121;28;20465;-64
2023/04/16 10:29:26;;;;;;;22.65;12.85;;;;;;;-145.18;100.00;60484.78;5013684;28;20017;-64
2023/04/16 10:31:52;;;;;;;21.48;13.25;;;;;;;-145.18;100.00;60484.78;5013244;28;20022;-64
2023/04/16 10:34:20;;;;;;;21.25;13.25;;;;;;;-145.18;100.00;60484.78;5013664;28;20026;-63
2023/04/16 10:36:51;;;;;;;18.80;12.10;;;;;;;-145.18;100.00;60484.78;5013603;28;20363;-64
2023/04/16 10:39:19;;;;;;;21.15;13.07;;;;;;;-145.18;100.00;60484.78;5012821;28;20500;-64
2023/04/16 10:41:45;;;;;;;20.77;12.25;;;;;;;-145.18;100.00;60484.78;5012065;28;20053;-63
2023/04/16 10:44:11;;;;;;;20.33;12.63;;;;;;;-145.18;100.00;60484.78;5012089;28;20036;-64
2023/04/16 10:46:48;;;;;;;20.08;12.90;;;;;;;-145.18;100.00;60484.78;5013830;28;20100;-64
2023/04/16 10:49:23;;;;;;;18.50;13.02;;;;;;;-145.18;100.00;60484.78;5012471;28;20053;-64
2023/04/16 10:51:58;;;;;;;19.77;13.13;;;;;;;-145.18;100.00;60484.78;5012963;28;20375;-64